Terminal Aerodrome Forecast
Issued by NWS

Home | Current Version | Previous Version | Text Only | Print | Product List | Glossary On
Versions: 1 2 3 4 5 6 7 8 9 10 11 12 13 14 15 16 17 18 19 20 21 22 23 24 25
000
FTUS43 KGRR 250500
TAFLAN
TAF
KLAN 250540Z 2506/2606 25013KT 6SM -SN BR BKN006 OVC013
     FM250800 25013KT P6SM OVC012
     FM251200 24011KT 6SM BR OVC025
     FM252100 22012KT P6SM BKN035=

USA.gov is the U.S. government's official web portal to all federal, state and local government web resources and services.